createdAt,value
2023-05-17T00:02:06.308Z,100.00
2023-05-17T00:04:33.651Z,100.00
2023-05-17T00:07:00.439Z,100.00
2023-05-17T00:09:27.046Z,100.00
2023-05-17T00:11:53.580Z,100.00
2023-05-17T00:14:20.341Z,100.00
2023-05-17T00:16:46.917Z,100.00
2023-05-17T00:19:13.806Z,100.00
2023-05-17T00:21:40.625Z,100.00
2023-05-17T00:24:07.296Z,100.00
2023-05-17T00:26:33.919Z,100.00
2023-05-17T00:29:00.660Z,100.00
2023-05-17T00:31:27.357Z,100.00
2023-05-17T00:33:53.980Z,100.00
2023-05-17T00:36:20.931Z,100.00
2023-05-17T00:38:47.528Z,100.00
2023-05-17T00:41:14.110Z,100.00
2023-05-17T00:43:40.959Z,100.00
2023-05-17T00:46:07.931Z,100.00
2023-05-17T00:48:35.890Z,100.00
2023-05-17T00:51:02.851Z,100.00
2023-05-17T00:53:30.175Z,100.00
2023-05-17T00:55:56.907Z,100.00
2023-05-17T00:58:24.154Z,100.00
2023-05-17T01:00:52.122Z,100.00
2023-05-17T01:03:18.941Z,100.00
2023-05-17T01:05:45.664Z,100.00
2023-05-17T01:08:12.223Z,100.00
2023-05-17T01:11:13.485Z,100.00
2023-05-17T01:13:56.640Z,100.00
2023-05-17T01:16:31.122Z,100.00
2023-05-17T01:19:19.728Z,100.00
2023-05-17T01:21:55.565Z,100.00
2023-05-17T01:24:57.784Z,100.00
2023-05-17T01:27:26.667Z,100.00
2023-05-17T01:29:56.308Z,100.00
2023-05-17T01:32:25.059Z,100.00
2023-05-17T01:34:52.141Z,100.00
2023-05-17T01:37:18.868Z,100.00
2023-05-17T01:39:46.535Z,100.00
2023-05-17T01:42:21.969Z,100.00
2023-05-17T01:45:18.588Z,100.00
2023-05-17T01:47:47.711Z,100.00
2023-05-17T01:50:17.518Z,100.00
2023-05-17T01:52:55.240Z,100.00
2023-05-17T01:55:24.524Z,100.00
2023-05-17T01:57:55.818Z,100.00
2023-05-17T02:00:25.800Z,100.00
2023-05-17T02:02:52.493Z,100.00
2023-05-17T02:05:22.368Z,100.00
2023-05-17T02:07:48.941Z,100.00
2023-05-17T02:10:17.441Z,100.00
2023-05-17T02:12:44.127Z,100.00
2023-05-17T02:15:12.080Z,100.00
2023-05-17T02:17:40.641Z,100.00
2023-05-17T02:20:08.789Z,100.00
2023-05-17T02:22:35.845Z,100.00
2023-05-17T02:25:02.581Z,100.00
2023-05-17T02:27:29.378Z,100.00
2023-05-17T02:29:56.076Z,100.00
2023-05-17T02:32:23.000Z,100.00
2023-05-17T02:34:49.740Z,100.00
2023-05-17T02:37:16.375Z,100.00
2023-05-17T02:39:44.318Z,100.00
2023-05-17T02:42:11.284Z,100.00
2023-05-17T02:44:37.937Z,100.00
2023-05-17T02:47:04.846Z,100.00
2023-05-17T02:49:31.610Z,100.00
2023-05-17T02:51:58.324Z,100.00
2023-05-17T02:54:25.005Z,100.00
2023-05-17T02:56:51.797Z,100.00
2023-05-17T02:59:18.518Z,100.00
2023-05-17T03:01:45.189Z,100.00
2023-05-17T03:04:12.511Z,100.00
2023-05-17T03:06:40.211Z,100.00
2023-05-17T03:09:07.264Z,100.00
2023-05-17T03:11:34.582Z,100.00
2023-05-17T03:14:04.138Z,100.00
2023-05-17T03:16:31.700Z,100.00
2023-05-17T03:18:59.377Z,100.00
2023-05-17T03:21:26.075Z,100.00
2023-05-17T03:23:52.687Z,100.00
2023-05-17T03:26:19.837Z,100.00
2023-05-17T03:28:49.878Z,100.00
2023-05-17T03:31:18.876Z,100.00
2023-05-17T03:33:46.038Z,100.00
2023-05-17T03:36:13.942Z,100.00
2023-05-17T03:38:40.653Z,100.00
2023-05-17T03:41:08.521Z,100.00
2023-05-17T03:43:35.247Z,100.00
2023-05-17T03:46:01.949Z,100.00
2023-05-17T03:48:29.549Z,100.00
2023-05-17T03:50:56.219Z,100.00
2023-05-17T03:53:22.906Z,100.00
2023-05-17T03:55:49.598Z,100.00
2023-05-17T03:58:18.175Z,100.00
2023-05-17T04:00:44.790Z,100.00
2023-05-17T04:03:16.915Z,100.00
2023-05-17T04:05:46.547Z,100.00
2023-05-17T04:08:13.712Z,100.00
2023-05-17T04:10:42.139Z,100.00
2023-05-17T04:13:09.622Z,100.00
2023-05-17T04:15:37.598Z,100.00
2023-05-17T04:18:05.538Z,100.00
2023-05-17T04:20:32.326Z,100.00
2023-05-17T04:23:01.778Z,100.00
2023-05-17T04:25:31.007Z,100.00
2023-05-17T04:27:57.900Z,100.00
2023-05-17T04:30:25.834Z,100.00
2023-05-17T04:32:52.532Z,100.00
2023-05-17T04:35:19.281Z,100.00
2023-05-17T04:37:49.574Z,100.00
2023-05-17T04:40:21.328Z,100.00
2023-05-17T04:42:48.943Z,100.00
2023-05-17T04:45:17.634Z,100.00
2023-05-17T04:47:44.320Z,100.00
2023-05-17T04:50:11.584Z,100.00
2023-05-17T04:52:38.433Z,100.00
2023-05-17T04:55:05.665Z,100.00
2023-05-17T04:57:32.357Z,100.00
2023-05-17T05:00:06.215Z,100.00
2023-05-17T05:02:33.736Z,100.00
2023-05-17T05:05:00.971Z,100.00
2023-05-17T05:07:28.034Z,100.00
2023-05-17T05:09:54.925Z,100.00
2023-05-17T05:12:23.112Z,100.00
2023-05-17T05:14:49.844Z,100.00
2023-05-17T05:17:16.499Z,100.00
2023-05-17T05:19:43.243Z,100.00
2023-05-17T05:22:09.866Z,100.00
2023-05-17T05:24:38.160Z,100.00
2023-05-17T05:27:06.939Z,100.00
2023-05-17T05:29:33.869Z,100.00
2023-05-17T05:32:00.527Z,100.00
2023-05-17T05:34:28.531Z,100.00
2023-05-17T05:36:55.533Z,100.00
2023-05-17T05:39:22.563Z,100.00
2023-05-17T05:41:49.892Z,100.00
2023-05-17T05:44:16.601Z,100.00
2023-05-17T05:46:43.415Z,100.00
2023-05-17T05:49:10.392Z,100.00
2023-05-17T05:51:37.516Z,100.00
2023-05-17T05:54:04.182Z,100.00
2023-05-17T05:56:31.611Z,100.00
2023-05-17T05:58:58.244Z,100.00
2023-05-17T06:01:25.410Z,100.00
2023-05-17T06:03:52.038Z,100.00
2023-05-17T06:06:19.449Z,100.00
2023-05-17T06:08:47.282Z,100.00
2023-05-17T06:11:14.308Z,100.00
2023-05-17T06:13:40.918Z,100.00
2023-05-17T06:16:07.532Z,100.00
2023-05-17T06:18:34.168Z,100.00
2023-05-17T06:21:00.893Z,100.00
2023-05-17T06:23:27.500Z,100.00
2023-05-17T06:25:54.117Z,100.00
2023-05-17T06:28:20.747Z,100.00
2023-05-17T06:30:47.349Z,100.00
2023-05-17T06:33:14.070Z,100.00
2023-05-17T06:35:54.632Z,100.00
2023-05-17T06:38:22.128Z,100.00
2023-05-17T06:40:55.636Z,100.00
2023-05-17T06:43:22.299Z,100.00
2023-05-17T06:45:48.907Z,100.00
2023-05-17T06:48:16.214Z,100.00
2023-05-17T06:50:43.104Z,100.00
2023-05-17T06:53:09.701Z,100.00
2023-05-17T06:55:36.618Z,100.00
2023-05-17T06:58:03.270Z,100.00
2023-05-17T07:00:30.355Z,100.00
2023-05-17T07:02:57.265Z,100.00
2023-05-17T07:05:24.302Z,100.00
2023-05-17T07:07:50.964Z,100.00
2023-05-17T07:10:17.546Z,100.00
2023-05-17T07:12:44.174Z,100.00
2023-05-17T07:15:11.325Z,100.00
2023-05-17T07:17:38.097Z,100.00
2023-05-17T07:20:06.219Z,100.00
2023-05-17T07:22:33.068Z,100.00
2023-05-17T07:24:59.710Z,100.00
2023-05-17T07:27:26.336Z,100.00
2023-05-17T07:29:53.006Z,99.13
2023-05-17T07:32:19.577Z,100.00
2023-05-17T07:34:46.436Z,100.00
2023-05-17T07:37:13.143Z,100.00
2023-05-17T07:39:39.949Z,96.14
2023-05-17T07:42:07.049Z,98.94
2023-05-17T07:44:33.885Z,97.72
2023-05-17T07:47:00.633Z,97.20
2023-05-17T07:49:27.593Z,97.26
2023-05-17T07:51:55.506Z,97.51
2023-05-17T07:54:24.892Z,100.00
2023-05-17T07:56:53.186Z,100.00
2023-05-17T07:59:19.843Z,99.01
2023-05-17T08:01:46.626Z,99.73
2023-05-17T08:04:14.354Z,99.95
2023-05-17T08:06:41.881Z,96.72
2023-05-17T08:09:08.479Z,98.82
2023-05-17T08:11:35.405Z,99.70
2023-05-17T08:14:01.999Z,93.19
2023-05-17T08:16:28.611Z,90.95
2023-05-17T08:18:55.495Z,93.02
2023-05-17T08:21:22.945Z,93.75
2023-05-17T08:23:49.556Z,96.39
2023-05-17T08:26:16.199Z,98.66
2023-05-17T08:28:42.731Z,96.94
2023-05-17T08:31:09.290Z,99.25
2023-05-17T08:33:36.580Z,100.00
2023-05-17T08:36:07.858Z,95.74
2023-05-17T08:38:34.692Z,86.49
2023-05-17T08:41:02.499Z,88.44
2023-05-17T08:43:31.325Z,85.84
2023-05-17T08:45:59.155Z,74.70
2023-05-17T08:48:27.548Z,69.98
2023-05-17T08:50:56.327Z,66.12
2023-05-17T08:53:24.355Z,60.56
2023-05-17T08:55:52.278Z,56.04
2023-05-17T08:58:26.855Z,57.38
2023-05-17T09:00:54.812Z,53.42
2023-05-17T09:03:22.579Z,52.59
2023-05-17T09:05:53.521Z,47.28
2023-05-17T09:08:22.446Z,46.59
2023-05-17T09:10:50.139Z,47.26
2023-05-17T09:13:17.120Z,44.82
2023-05-17T09:15:47.823Z,43.06
2023-05-17T09:18:17.019Z,43.44
2023-05-17T09:20:51.534Z,44.50
2023-05-17T09:23:21.376Z,44.83
2023-05-17T09:25:49.075Z,43.86
2023-05-17T09:28:18.817Z,41.73
2023-05-17T09:30:48.375Z,43.35
2023-05-17T09:33:17.660Z,40.89
2023-05-17T09:35:45.561Z,37.67
2023-05-17T09:38:13.684Z,39.79
2023-05-17T09:40:45.094Z,41.28
2023-05-17T09:43:13.017Z,42.09
2023-05-17T09:45:40.200Z,42.91
2023-05-17T09:48:13.761Z,39.96
2023-05-17T09:50:49.545Z,39.79
2023-05-17T09:53:28.255Z,40.14
2023-05-17T09:55:59.799Z,39.58
2023-05-17T09:58:28.672Z,38.60
2023-05-17T10:01:03.625Z,38.42
2023-05-17T10:03:33.173Z,38.87
2023-05-17T10:06:03.769Z,39.21
2023-05-17T10:08:31.777Z,38.66
2023-05-17T10:11:03.433Z,38.76
2023-05-17T10:13:54.457Z,37.39
2023-05-17T10:16:23.460Z,37.28
2023-05-17T10:18:50.911Z,38.21
2023-05-17T10:21:18.613Z,37.90
2023-05-17T10:23:47.425Z,39.61
2023-05-17T10:26:16.132Z,40.28
2023-05-17T10:28:43.357Z,41.81
2023-05-17T10:31:10.223Z,40.07
2023-05-17T10:33:37.394Z,37.44
2023-05-17T10:36:06.562Z,37.96
2023-05-17T10:38:41.777Z,38.88
2023-05-17T10:41:15.033Z,37.88
2023-05-17T10:43:43.604Z,35.67
2023-05-17T10:46:16.399Z,33.74
2023-05-17T10:48:44.447Z,32.10
2023-05-17T10:51:12.024Z,32.65
2023-05-17T10:54:11.846Z,32.77
2023-05-17T10:56:47.276Z,31.82
2023-05-17T10:59:26.672Z,32.17
2023-05-17T11:02:04.498Z,31.48
2023-05-17T11:04:42.284Z,32.93
2023-05-17T11:07:27.914Z,33.96
2023-05-17T11:10:07.916Z,33.85
2023-05-17T11:12:37.607Z,34.38
2023-05-17T11:15:10.457Z,34.49
2023-05-17T11:17:51.346Z,35.83
2023-05-17T11:20:24.069Z,35.01
2023-05-17T11:23:05.020Z,33.13
2023-05-17T11:25:39.530Z,31.27
2023-05-17T11:28:08.792Z,30.33
2023-05-17T11:30:41.357Z,31.79
2023-05-17T11:33:20.393Z,31.90
2023-05-17T11:35:54.612Z,30.76
2023-05-17T11:38:30.303Z,31.19
2023-05-17T11:40:57.793Z,30.14
2023-05-17T11:43:27.240Z,30.61
2023-05-17T11:45:57.364Z,30.92
2023-05-17T11:48:26.104Z,30.83
2023-05-17T11:50:55.015Z,29.81
2023-05-17T11:53:22.009Z,28.69
2023-05-17T11:55:52.981Z,27.96
2023-05-17T11:58:24.150Z,27.42
2023-05-17T12:00:55.862Z,28.02
2023-05-17T12:03:22.457Z,27.46
2023-05-17T12:06:10.468Z,29.03
2023-05-17T12:08:39.228Z,27.13
2023-05-17T12:11:07.285Z,27.70
2023-05-17T12:13:35.612Z,27.44
2023-05-17T12:16:05.869Z,27.87
2023-05-17T12:18:37.893Z,29.31
2023-05-17T12:21:05.753Z,28.67
2023-05-17T12:23:33.635Z,27.39
2023-05-17T12:26:16.607Z,27.58
2023-05-17T12:28:46.260Z,26.37
2023-05-17T12:31:16.771Z,26.72
2023-05-17T12:33:45.342Z,27.85
2023-05-17T12:36:13.826Z,27.71
2023-05-17T12:38:42.342Z,26.76
2023-05-17T12:41:12.430Z,26.82
2023-05-17T12:43:40.149Z,26.84
2023-05-17T12:46:08.834Z,27.20
2023-05-17T12:48:40.543Z,25.89
2023-05-17T12:51:14.626Z,25.48
2023-05-17T12:53:44.941Z,25.07
2023-05-17T12:56:16.911Z,25.07
2023-05-17T12:58:44.525Z,24.75
2023-05-17T13:01:14.370Z,25.13
2023-05-17T13:03:41.796Z,24.84
2023-05-17T13:06:10.253Z,24.84
2023-05-17T13:08:37.042Z,25.17
2023-05-17T13:11:13.539Z,26.38
2023-05-17T13:13:41.506Z,25.61
2023-05-17T13:16:08.444Z,25.42
2023-05-17T13:18:52.015Z,24.10
2023-05-17T13:21:20.424Z,24.64
2023-05-17T13:23:48.852Z,24.25
2023-05-17T13:26:17.330Z,25.23
2023-05-17T13:28:44.614Z,25.89
2023-05-17T13:31:11.435Z,24.81
2023-05-17T13:33:38.418Z,24.19
2023-05-17T13:36:05.520Z,24.76
2023-05-17T13:38:32.089Z,23.91
2023-05-17T13:40:58.705Z,24.89
2023-05-17T13:43:25.294Z,23.81
2023-05-17T13:45:56.688Z,24.08
2023-05-17T13:48:23.464Z,23.62
2023-05-17T13:50:50.971Z,23.37
2023-05-17T13:53:18.085Z,23.45
2023-05-17T13:55:44.933Z,23.43
2023-05-17T13:58:11.729Z,24.90
2023-05-17T14:00:41.275Z,24.40
2023-05-17T14:03:08.498Z,24.84
2023-05-17T14:05:36.545Z,24.37
2023-05-17T14:08:03.531Z,24.47
2023-05-17T14:10:30.610Z,25.56
2023-05-17T14:12:57.393Z,27.24
2023-05-17T14:15:24.599Z,29.79
2023-05-17T14:17:51.589Z,29.77
2023-05-17T14:20:18.511Z,27.92
2023-05-17T14:22:45.848Z,27.15
2023-05-17T14:25:12.486Z,27.02
2023-05-17T14:27:39.084Z,28.34
2023-05-17T14:30:06.327Z,28.93
2023-05-17T14:32:33.002Z,30.02
2023-05-17T14:34:59.598Z,30.26
2023-05-17T14:37:26.223Z,30.19
2023-05-17T14:40:05.776Z,30.46
2023-05-17T14:42:33.706Z,30.79
2023-05-17T14:45:00.533Z,30.44
2023-05-17T14:47:27.246Z,30.78
2023-05-17T14:49:53.813Z,31.41
2023-05-17T14:52:20.692Z,31.85
2023-05-17T14:54:47.341Z,31.60
2023-05-17T14:57:13.984Z,30.07
2023-05-17T14:59:43.206Z,31.09
2023-05-17T15:02:11.639Z,31.25
2023-05-17T15:04:38.550Z,31.55
2023-05-17T15:07:05.986Z,31.70
2023-05-17T15:09:32.664Z,32.81
2023-05-17T15:11:59.271Z,33.04
2023-05-17T15:14:27.041Z,33.29
2023-05-17T15:16:53.672Z,34.28
2023-05-17T15:19:20.476Z,35.97
2023-05-17T15:21:47.215Z,36.60
2023-05-17T15:24:15.953Z,36.27
2023-05-17T15:26:44.428Z,37.04
2023-05-17T15:29:11.615Z,37.35
2023-05-17T15:31:38.230Z,37.87
2023-05-17T15:34:04.957Z,36.22
2023-05-17T15:36:32.541Z,35.33
2023-05-17T15:38:59.175Z,36.58
2023-05-17T15:41:29.753Z,38.02
2023-05-17T15:43:57.159Z,38.51
2023-05-17T15:46:23.853Z,39.09
2023-05-17T15:48:50.392Z,38.49
2023-05-17T15:51:17.111Z,38.54
2023-05-17T15:53:43.763Z,38.52
2023-05-17T15:56:11.305Z,38.06
2023-05-17T15:58:37.864Z,38.38
2023-05-17T16:01:05.618Z,34.30
2023-05-17T16:03:33.086Z,32.61
2023-05-17T16:05:59.810Z,31.52
2023-05-17T16:08:26.505Z,29.43
2023-05-17T16:10:53.113Z,29.01
2023-05-17T16:13:19.709Z,28.48
2023-05-17T16:15:46.466Z,28.27
2023-05-17T16:18:15.010Z,27.86
2023-05-17T16:20:42.594Z,28.24
2023-05-17T16:23:09.573Z,27.65
2023-05-17T16:25:36.573Z,28.42
2023-05-17T16:28:03.230Z,29.02
2023-05-17T16:30:29.893Z,30.54
2023-05-17T16:32:56.546Z,32.50
2023-05-17T16:35:23.177Z,33.36
2023-05-17T16:37:50.245Z,34.15
2023-05-17T16:40:16.975Z,34.66
2023-05-17T16:42:44.518Z,34.90
2023-05-17T16:45:11.448Z,34.19
2023-05-17T16:47:38.175Z,35.04
2023-05-17T16:50:06.622Z,34.20
2023-05-17T16:52:33.236Z,34.96
2023-05-17T16:55:03.358Z,35.52
2023-05-17T16:57:34.026Z,36.15
2023-05-17T17:00:01.091Z,36.76
2023-05-17T17:02:28.535Z,35.70
2023-05-17T17:04:55.606Z,35.42
2023-05-17T17:07:22.220Z,36.00
2023-05-17T17:09:48.778Z,36.96
2023-05-17T17:12:24.046Z,37.33
2023-05-17T17:14:52.429Z,37.40
2023-05-17T17:17:18.985Z,37.42
2023-05-17T17:19:45.539Z,37.84
2023-05-17T17:22:14.184Z,38.04
2023-05-17T17:24:40.832Z,39.43
2023-05-17T17:27:07.455Z,40.21
2023-05-17T17:29:34.055Z,40.28
2023-05-17T17:32:00.994Z,40.49
2023-05-17T17:34:27.719Z,41.58
2023-05-17T17:36:54.602Z,41.74
2023-05-17T17:39:21.264Z,41.70
2023-05-17T17:41:47.964Z,42.24
2023-05-17T17:44:14.497Z,42.86
2023-05-17T17:46:41.134Z,43.48
2023-05-17T17:49:07.800Z,44.55
2023-05-17T17:51:34.419Z,43.86
2023-05-17T17:54:03.626Z,43.93
2023-05-17T17:56:30.424Z,44.47
2023-05-17T17:58:57.169Z,44.73
2023-05-17T18:01:23.961Z,44.88
2023-05-17T18:03:50.615Z,44.31
2023-05-17T18:06:17.197Z,44.96
2023-05-17T18:08:43.840Z,44.75
2023-05-17T18:11:10.435Z,44.37
2023-05-17T18:13:37.150Z,44.50
2023-05-17T18:16:04.166Z,44.39
2023-05-17T18:18:30.755Z,44.20
2023-05-17T18:20:57.556Z,44.04
2023-05-17T18:23:24.755Z,44.25
2023-05-17T18:25:51.475Z,44.14
2023-05-17T18:28:21.682Z,44.38
2023-05-17T18:30:58.118Z,45.49
2023-05-17T18:33:25.306Z,45.55
2023-05-17T18:35:51.943Z,46.23
2023-05-17T18:38:18.888Z,46.58
2023-05-17T18:40:45.672Z,47.02
2023-05-17T18:43:12.911Z,47.70
2023-05-17T18:45:39.579Z,48.08
2023-05-17T18:48:06.410Z,48.87
2023-05-17T18:50:33.239Z,49.85
2023-05-17T18:53:00.573Z,50.40
2023-05-17T18:55:27.237Z,51.33
2023-05-17T18:57:54.031Z,51.64
2023-05-17T19:00:21.188Z,52.60
2023-05-17T19:02:48.172Z,53.51
2023-05-17T19:05:14.970Z,55.63
2023-05-17T19:07:41.504Z,57.26
2023-05-17T19:10:08.563Z,58.44
2023-05-17T19:12:35.582Z,60.17
2023-05-17T19:15:03.863Z,63.18
2023-05-17T19:17:30.816Z,65.77
2023-05-17T19:19:57.551Z,69.23
2023-05-17T19:22:24.143Z,72.03
2023-05-17T19:24:50.797Z,76.01
2023-05-17T19:27:19.696Z,78.12
2023-05-17T19:29:47.764Z,82.85
2023-05-17T19:32:14.452Z,85.02
2023-05-17T19:34:41.352Z,86.05
2023-05-17T19:37:07.964Z,88.15
2023-05-17T19:39:34.538Z,90.43
2023-05-17T19:42:01.185Z,91.38
2023-05-17T19:44:27.746Z,93.51
2023-05-17T19:46:54.465Z,94.99
2023-05-17T19:49:21.469Z,96.68
2023-05-17T19:51:48.184Z,97.89
2023-05-17T19:54:14.905Z,100.00
2023-05-17T19:56:41.591Z,100.00
2023-05-17T19:59:08.274Z,100.00
2023-05-17T20:01:34.959Z,100.00
2023-05-17T20:04:01.717Z,100.00
2023-05-17T20:06:28.492Z,100.00
2023-05-17T20:08:55.103Z,100.00
2023-05-17T20:11:21.903Z,100.00
2023-05-17T20:13:48.484Z,100.00
2023-05-17T20:16:15.140Z,100.00
2023-05-17T20:18:43.444Z,100.00
2023-05-17T20:21:12.519Z,100.00
2023-05-17T20:23:40.446Z,100.00
2023-05-17T20:26:07.112Z,100.00
2023-05-17T20:28:33.772Z,100.00
2023-05-17T20:31:00.800Z,100.00
2023-05-17T20:33:27.572Z,100.00
2023-05-17T20:35:54.212Z,100.00
2023-05-17T20:38:21.543Z,100.00
2023-05-17T20:40:48.261Z,100.00
2023-05-17T20:43:16.705Z,100.00
2023-05-17T20:45:43.569Z,100.00
2023-05-17T20:48:10.318Z,100.00
2023-05-17T20:50:37.118Z,100.00
2023-05-17T20:53:03.808Z,100.00
2023-05-17T20:55:30.480Z,100.00
2023-05-17T20:57:57.626Z,100.00
2023-05-17T21:00:24.690Z,100.00
2023-05-17T21:02:51.502Z,100.00
2023-05-17T21:05:18.181Z,100.00
2023-05-17T21:07:46.655Z,100.00
2023-05-17T21:10:13.381Z,100.00
2023-05-17T21:12:40.099Z,100.00
2023-05-17T21:15:15.804Z,100.00
2023-05-17T21:17:45.338Z,100.00
2023-05-17T21:20:12.291Z,100.00
2023-05-17T21:22:38.941Z,100.00
2023-05-17T21:25:06.125Z,100.00
2023-05-17T21:27:33.946Z,100.00
2023-05-17T21:30:01.503Z,100.00
2023-05-17T21:32:28.155Z,100.00
2023-05-17T21:34:54.714Z,100.00
2023-05-17T21:37:21.411Z,100.00
2023-05-17T21:39:47.996Z,100.00
2023-05-17T21:42:14.566Z,100.00
2023-05-17T21:44:41.181Z,100.00
2023-05-17T21:47:07.925Z,100.00
2023-05-17T21:49:34.720Z,100.00
2023-05-17T21:52:01.314Z,100.00
2023-05-17T21:54:27.837Z,100.00
2023-05-17T21:56:54.411Z,100.00
2023-05-17T21:59:21.005Z,100.00
2023-05-17T22:01:47.676Z,100.00
2023-05-17T22:04:14.315Z,100.00
2023-05-17T22:06:40.936Z,100.00
2023-05-17T22:09:09.385Z,100.00
2023-05-17T22:11:38.369Z,100.00
2023-05-17T22:14:07.966Z,100.00
2023-05-17T22:16:36.064Z,100.00
2023-05-17T22:19:03.882Z,100.00
2023-05-17T22:21:32.120Z,100.00
2023-05-17T22:23:59.400Z,100.00
2023-05-17T22:26:27.662Z,100.00
2023-05-17T22:28:54.612Z,100.00
2023-05-17T22:31:21.433Z,100.00
2023-05-17T22:33:48.110Z,100.00
2023-05-17T22:36:14.787Z,100.00
2023-05-17T22:38:42.657Z,100.00
2023-05-17T22:41:10.723Z,100.00
2023-05-17T22:43:37.921Z,100.00
2023-05-17T22:46:05.019Z,100.00
2023-05-17T22:48:32.362Z,100.00
2023-05-17T22:51:00.810Z,100.00
2023-05-17T22:53:29.058Z,100.00
2023-05-17T22:55:56.102Z,100.00
2023-05-17T22:58:25.839Z,100.00
2023-05-17T23:00:52.728Z,100.00
2023-05-17T23:03:19.604Z,100.00
2023-05-17T23:05:46.303Z,100.00
2023-05-17T23:08:15.426Z,100.00
2023-05-17T23:10:45.767Z,100.00
2023-05-17T23:13:12.845Z,100.00
2023-05-17T23:15:40.632Z,100.00
2023-05-17T23:18:08.493Z,100.00
2023-05-17T23:20:35.173Z,100.00
2023-05-17T23:23:02.070Z,100.00
2023-05-17T23:25:28.934Z,100.00
2023-05-17T23:27:58.049Z,100.00
2023-05-17T23:30:25.107Z,100.00
2023-05-17T23:32:52.560Z,100.00
2023-05-17T23:35:19.145Z,100.00
2023-05-17T23:37:45.808Z,100.00
2023-05-17T23:40:14.616Z,100.00
2023-05-17T23:42:41.771Z,100.00
2023-05-17T23:45:09.809Z,100.00
2023-05-17T23:47:40.813Z,100.00
2023-05-17T23:50:11.975Z,100.00
2023-05-17T23:52:39.631Z,100.00
2023-05-17T23:55:07.435Z,100.00
2023-05-17T23:57:35.186Z,100.00
